Share

Shannon, Ireland

Shannon (EINN) Elev 66 ft | 52.70 °N, 8.92 °W | Change Station

Current weather conditions updated 17 minutes ago

Mostly Cloudy
Mostly Cloudy
52 °F
Feels Like 52 °F
N
10
Wind Variable Wind from WSW
Sunrise 6:33 AM
Sunset 8:38 PM
Moon Waning Gibbous

Today is forecast to be Much Cooler than yesterday.

Pressure 30.18 in
Visibility 6.2 miles
Clouds Few 600 ft
Scattered Clouds 1100 ft
Mostly Cloudy 3800 ft
Dew Point 50 °F
Humidity 94%
Rainfall 0.00 in
Snow Depth Not available.
UV 0 out of 16
Pollen Not available.
Air Quality Not available.
Flu Activity Not available.
METAR EINN 170030Z 25009KT 9999 FEW006 SCT011 BKN038 11/10 Q1022 NOSIG

More Conditions Fewer Conditions

Pressure 30.18 in
Visibility 6.2 miles
Clouds Few 600 ft
Scattered Clouds 1100 ft
Mostly Cloudy 3800 ft
Dew Point 50 °F
Humidity 94%
Rainfall 0.00 in
Snow Depth Not available.
UV 0 out of 16
Pollen Not available.
Air Quality Not available.
Flu Activity Not available.
METAR EINN 170030Z 25009KT 9999 FEW006 SCT011 BKN038 11/10 Q1022 NOSIG

More Conditions Fewer Conditions

10-Day Forecast

Almanac

Astronomy

Apr. 17, 2014 Rise Set
Actual Time 6:33 AM IST 8:38 PM IST
Civil Twilight 5:56 AM IST 9:15 PM IST
Nautical Twilight 5:10 AM IST 10:01 PM IST
Astronomical Twilight 4:17 AM IST 10:55 PM IST
Moon 11:26 PM IST 7:42 AM IST
Length of Visible Light 15h 18m
Length of Day
14h 04m
Tomorrow will be 3m 59s longer.
Waning Gibbous, 97% of the Moon is Illuminated
Apr 16
Waning Gibbous
Apr 22
Last Quarter
Apr 29
New
May 6
First Quarter
May 14
Full

Yesterday's Extremes

Country Highs Country Lows

Community

  • symphony in blue....
    symphony in blue....
  • Dawn Surprise
    Dawn Surprise
  • Yucca delight
    Yucca delight
  • Sunset inside of the Ocean
    Sunset inside of the Ocean
  • Lunar eclipse 15 April 2014
    Lunar eclipse 15 April 2014

WunderPhotos

Upload Photos

1,701,768 photos uploaded!

WunderBlogs® & News

Nearby

Snow Depth

Not available.

Coastal Water Temperatures

Place Temperature
No Stations Reporting

Earthquake Activity

City Distance Mag. Time & Date
No recent earthquake activity has been reported nearby.
Minimum magnitude displayed is 2.5.

Nearby Weather Stations

Station Location Temp. Windchill Dew Point Humidity Wind Precip. Elev Updated Type
Clonigulane, Kilmihil 50.0 °F - 49 °F 95% SSW  at  0.0 mph 0.00 in / hr 338 ft 1:45 AM IST Normal
Gardenfield, Newcastle West 51.6 °F - 47 °F 85% SSW  at  7.0 mph 0.00 in / hr 236 ft 1:47 AM IST Rapid Fire
Clare Glens, Newport, Clare Glens 50.0 °F 46 °F 43 °F 77% WSW  at  8.8 mph 0.00 in / hr 279 ft 1:47 AM IST Normal

Show More Stations Show Fewer Stations

What do you think?

We're not finished. Please let us know what you like, what you don't like, and what you are still missing.